Waconia, MN (55387)

1:19 PM CDT on May 25, 2017 (GMT -0500)
Island View Golf Club | | Change Station
Active Advisory: Flood Warning

Elev 994 ft 44.86 °N, 93.75 °W | Updated 18 seconds ago

Overcast
Overcast
65.1 °F
Feels Like 65.1 °F
N
11.0
Wind Variable Wind from SE
Gusts 17.0 mph

Today
High -- | Low -- °F
--% Chance of Precip.
Yesterday
High -- | Low -- °F
Precip. -- in
Pressure 29.65 in
Visibility 10.0 miles
Clouds Mostly Cloudy 4100 ft
Dew Point 50 °F
Humidity 59%
Rainfall 0.00 in
Snow Depth Not available.
5:36 AM 8:48 PM
Waning Crescent, 0% visible
METAR KGYL 251817Z AUTO 15010G14KT 10SM BKN041 19/12 A2965 RMK AO2 T01920116
Pressure 29.65 in
Visibility 10.0 miles
Clouds Mostly Cloudy 4100 ft
Dew Point 50 °F
Humidity 59%
Rainfall 0.00 in
Snow Depth Not available.
5:36 AM 8:48 PM
Waning Crescent, 0% visible
METAR KGYL 251817Z AUTO 15010G14KT 10SM BKN041 19/12 A2965 RMK AO2 T01920116

Get Your Daily Forecast Email!

Thanks for signing up!

Be on the lookout for a verification email in your inbox.

You'll start receiving severe weather alerts in your inbox..

×

10-Day Weather Forecast

Almanac

Astronomy

May. 25, 2017 Rise Set
Actual Time
Civil Twilight
Nautical Twilight
Astronomical Twilight
Moon
Length of Visible Light
Length of Day
Tomorrow will be .
, % of the Moon is Illuminated

Today's Extremes

State Highs State Lows

Community

WunderPhotos

Category 6

Welcome to Category 6. This is the collective home for Weather Underground's featured writeups by Dr. Jeff Masters (right), Bob Henson (left), Chris Burt, and other regular contributors.

Nearby

Air Quality

  Air Quality AQ Index Pollutant
Not available.

Snow Depth

Station Depth Elevation

Earthquake Activity

City Distance Mag. Time & Date
Minimum magnitude displayed is 2.5.

Coastal Water Temperatures

Place Temperature

Stations

Nearby Weather Stations

Station Location Temp. Windchill Dew Point Humidity Wind Precip. Elev Updated Type
                   

Watches & Warnings

Flood Warning
Issued: 10:12 AM CDT May. 25, 2017 – National Weather Service

The Flood Warning continues for
the South Fork Crow River below Mayer.
* Until Saturday afternoon.
* At 9:30 am Thursday the stage was 11.2 feet.
* Minor flooding is occurring and minor flooding is forecast.
* Flood stage is 11.0 feet.
* Forecast... the river will continue rising to near 11.4 feet by
after midnight tonight. The river will fall below flood stage
Saturday afternoon.
* Impact... at 12.0 feet... flooding affects mill Avenue from Watertown
to the Wright County line; Yancy Avenue between Carver County Road
30 and 78th street; Vega Avenue between Carver County Road 33 and
94th street; and the intersection of Union Avenue and 82nd street.
* Impact... at 11.0 feet... Carver County Road 123 is closed north of
Highway 7 to 42nd street.


Lat... Lon 4498 9390 4498 9377 4483 9390 4486 9399

Amk